sensor_id;sensor_type;location;lat;lon;timestamp;P1;durP1;ratioP1;P2;durP2;ratioP2
7205;SDS011;3644;53.480;10.004;2023-04-24T00:00:53;10.03;;;5.70;;
7205;SDS011;3644;53.480;10.004;2023-04-24T00:03:21;6.77;;;5.80;;
7205;SDS011;3644;53.480;10.004;2023-04-24T00:05:47;8.00;;;6.67;;
7205;SDS011;3644;53.480;10.004;2023-04-24T00:08:13;6.37;;;5.67;;
7205;SDS011;3644;53.480;10.004;2023-04-24T00:10:38;6.90;;;6.20;;
7205;SDS011;3644;53.480;10.004;2023-04-24T00:13:04;7.60;;;5.80;;
7205;SDS011;3644;53.480;10.004;2023-04-24T00:15:30;6.80;;;5.77;;
7205;SDS011;3644;53.480;10.004;2023-04-24T00:17:56;7.20;;;6.33;;
7205;SDS011;3644;53.480;10.004;2023-04-24T00:20:21;5.30;;;4.80;;
7205;SDS011;3644;53.480;10.004;2023-04-24T00:22:47;6.63;;;5.37;;
7205;SDS011;3644;53.480;10.004;2023-04-24T00:25:13;10.73;;;5.60;;
7205;SDS011;3644;53.480;10.004;2023-04-24T00:27:38;6.93;;;5.03;;
7205;SDS011;3644;53.480;10.004;2023-04-24T00:30:04;6.87;;;5.23;;
7205;SDS011;3644;53.480;10.004;2023-04-24T00:32:30;6.07;;;5.17;;
7205;SDS011;3644;53.480;10.004;2023-04-24T00:34:55;6.03;;;5.43;;
7205;SDS011;3644;53.480;10.004;2023-04-24T00:37:21;7.30;;;4.77;;
7205;SDS011;3644;53.480;10.004;2023-04-24T00:39:46;8.30;;;4.80;;
7205;SDS011;3644;53.480;10.004;2023-04-24T00:42:12;6.90;;;5.53;;
7205;SDS011;3644;53.480;10.004;2023-04-24T00:44:37;5.77;;;5.20;;
7205;SDS011;3644;53.480;10.004;2023-04-24T00:47:03;5.07;;;4.30;;
7205;SDS011;3644;53.480;10.004;2023-04-24T00:49:29;5.10;;;4.50;;
7205;SDS011;3644;53.480;10.004;2023-04-24T00:51:55;6.70;;;4.50;;
7205;SDS011;3644;53.480;10.004;2023-04-24T00:54:21;4.80;;;4.30;;
7205;SDS011;3644;53.480;10.004;2023-04-24T00:56:47;5.10;;;4.60;;
7205;SDS011;3644;53.480;10.004;2023-04-24T00:59:13;6.10;;;4.80;;
7205;SDS011;3644;53.480;10.004;2023-04-24T01:01:40;5.27;;;4.80;;
7205;SDS011;3644;53.480;10.004;2023-04-24T01:04:07;9.60;;;5.23;;
7205;SDS011;3644;53.480;10.004;2023-04-24T01:06:34;6.97;;;5.30;;
7205;SDS011;3644;53.480;10.004;2023-04-24T01:09:03;4.80;;;4.30;;
7205;SDS011;3644;53.480;10.004;2023-04-24T01:11:29;5.73;;;5.23;;
7205;SDS011;3644;53.480;10.004;2023-04-24T01:13:55;5.83;;;4.70;;
7205;SDS011;3644;53.480;10.004;2023-04-24T01:16:21;5.13;;;4.63;;
7205;SDS011;3644;53.480;10.004;2023-04-24T01:18:47;4.83;;;4.30;;
7205;SDS011;3644;53.480;10.004;2023-04-24T01:21:13;4.63;;;4.23;;
7205;SDS011;3644;53.480;10.004;2023-04-24T01:23:43;6.50;;;5.30;;
7205;SDS011;3644;53.480;10.004;2023-04-24T01:26:09;4.67;;;3.93;;
7205;SDS011;3644;53.480;10.004;2023-04-24T01:28:35;4.20;;;3.83;;
7205;SDS011;3644;53.480;10.004;2023-04-24T01:31:02;5.77;;;4.13;;
7205;SDS011;3644;53.480;10.004;2023-04-24T01:33:27;4.63;;;4.00;;
7205;SDS011;3644;53.480;10.004;2023-04-24T01:35:53;5.73;;;3.97;;
7205;SDS011;3644;53.480;10.004;2023-04-24T01:38:19;5.10;;;4.70;;
7205;SDS011;3644;53.480;10.004;2023-04-24T01:40:44;3.97;;;3.67;;
7205;SDS011;3644;53.480;10.004;2023-04-24T01:43:11;4.77;;;4.37;;
7205;SDS011;3644;53.480;10.004;2023-04-24T01:45:37;5.33;;;4.23;;
7205;SDS011;3644;53.480;10.004;2023-04-24T01:48:03;4.90;;;4.40;;
7205;SDS011;3644;53.480;10.004;2023-04-24T01:50:28;6.50;;;4.03;;
7205;SDS011;3644;53.480;10.004;2023-04-24T01:52:54;3.90;;;3.20;;
7205;SDS011;3644;53.480;10.004;2023-04-24T01:55:20;3.60;;;3.23;;
7205;SDS011;3644;53.480;10.004;2023-04-24T01:57:45;3.93;;;3.53;;
7205;SDS011;3644;53.480;10.004;2023-04-24T02:00:11;3.63;;;3.30;;
7205;SDS011;3644;53.480;10.004;2023-04-24T02:02:38;3.30;;;3.00;;
7205;SDS011;3644;53.480;10.004;2023-04-24T02:05:08;3.37;;;3.13;;
7205;SDS011;3644;53.480;10.004;2023-04-24T02:07:34;3.33;;;3.03;;
7205;SDS011;3644;53.480;10.004;2023-04-24T02:10:00;4.53;;;3.17;;
7205;SDS011;3644;53.480;10.004;2023-04-24T02:12:25;2.73;;;2.53;;
7205;SDS011;3644;53.480;10.004;2023-04-24T02:14:51;3.90;;;3.13;;
7205;SDS011;3644;53.480;10.004;2023-04-24T02:17:16;4.80;;;3.03;;
7205;SDS011;3644;53.480;10.004;2023-04-24T02:19:44;4.43;;;3.00;;
7205;SDS011;3644;53.480;10.004;2023-04-24T02:22:09;3.37;;;3.07;;
7205;SDS011;3644;53.480;10.004;2023-04-24T02:24:35;4.50;;;3.40;;
7205;SDS011;3644;53.480;10.004;2023-04-24T02:27:01;6.67;;;3.33;;
7205;SDS011;3644;53.480;10.004;2023-04-24T02:29:27;2.83;;;2.63;;
7205;SDS011;3644;53.480;10.004;2023-04-24T02:31:53;2.30;;;2.20;;
7205;SDS011;3644;53.480;10.004;2023-04-24T02:34:18;3.03;;;2.63;;
7205;SDS011;3644;53.480;10.004;2023-04-24T02:36:44;2.80;;;2.60;;
7205;SDS011;3644;53.480;10.004;2023-04-24T02:39:09;2.13;;;2.03;;
7205;SDS011;3644;53.480;10.004;2023-04-24T02:41:35;2.57;;;2.37;;
7205;SDS011;3644;53.480;10.004;2023-04-24T02:44:01;2.87;;;2.63;;
7205;SDS011;3644;53.480;10.004;2023-04-24T02:46:26;1.93;;;1.83;;
7205;SDS011;3644;53.480;10.004;2023-04-24T02:48:55;2.50;;;2.20;;
7205;SDS011;3644;53.480;10.004;2023-04-24T02:51:20;3.50;;;1.97;;
7205;SDS011;3644;53.480;10.004;2023-04-24T02:53:46;2.30;;;2.13;;
7205;SDS011;3644;53.480;10.004;2023-04-24T02:56:11;1.90;;;1.77;;
7205;SDS011;3644;53.480;10.004;2023-04-24T02:58:40;2.10;;;1.90;;
7205;SDS011;3644;53.480;10.004;2023-04-24T03:01:05;2.27;;;2.03;;
7205;SDS011;3644;53.480;10.004;2023-04-24T03:03:31;2.10;;;1.90;;
7205;SDS011;3644;53.480;10.004;2023-04-24T03:05:56;2.20;;;2.00;;
7205;SDS011;3644;53.480;10.004;2023-04-24T03:08:22;2.20;;;2.00;;
7205;SDS011;3644;53.480;10.004;2023-04-24T03:10:48;2.57;;;2.40;;
7205;SDS011;3644;53.480;10.004;2023-04-24T03:13:15;2.97;;;1.90;;
7205;SDS011;3644;53.480;10.004;2023-04-24T03:15:41;2.10;;;1.90;;
7205;SDS011;3644;53.480;10.004;2023-04-24T03:18:06;1.97;;;1.77;;
7205;SDS011;3644;53.480;10.004;2023-04-24T03:20:32;1.60;;;1.50;;
7205;SDS011;3644;53.480;10.004;2023-04-24T03:22:57;5.67;;;1.80;;
7205;SDS011;3644;53.480;10.004;2023-04-24T03:25:23;5.70;;;1.57;;
7205;SDS011;3644;53.480;10.004;2023-04-24T03:27:48;1.60;;;1.50;;
7205;SDS011;3644;53.480;10.004;2023-04-24T03:30:14;13.70;;;3.00;;
7205;SDS011;3644;53.480;10.004;2023-04-24T03:32:40;2.27;;;1.43;;
7205;SDS011;3644;53.480;10.004;2023-04-24T03:35:08;1.60;;;1.50;;
7205;SDS011;3644;53.480;10.004;2023-04-24T03:37:34;2.20;;;2.00;;
7205;SDS011;3644;53.480;10.004;2023-04-24T03:40:00;1.50;;;1.40;;
7205;SDS011;3644;53.480;10.004;2023-04-24T03:42:26;1.57;;;1.47;;
7205;SDS011;3644;53.480;10.004;2023-04-24T03:44:51;3.30;;;1.77;;
7205;SDS011;3644;53.480;10.004;2023-04-24T03:47:17;2.67;;;1.40;;
7205;SDS011;3644;53.480;10.004;2023-04-24T03:49:42;1.37;;;1.30;;
7205;SDS011;3644;53.480;10.004;2023-04-24T03:52:08;1.63;;;1.53;;
7205;SDS011;3644;53.480;10.004;2023-04-24T03:54:33;2.23;;;1.77;;
7205;SDS011;3644;53.480;10.004;2023-04-24T03:56:59;1.70;;;1.50;;
7205;SDS011;3644;53.480;10.004;2023-04-24T03:59:25;3.00;;;1.60;;
7205;SDS011;3644;53.480;10.004;2023-04-24T04:01:50;1.90;;;1.80;;
7205;SDS011;3644;53.480;10.004;2023-04-24T04:04:16;2.07;;;1.57;;
7205;SDS011;3644;53.480;10.004;2023-04-24T04:06:42;1.97;;;1.73;;
7205;SDS011;3644;53.480;10.004;2023-04-24T04:09:08;1.50;;;1.40;;
7205;SDS011;3644;53.480;10.004;2023-04-24T04:11:35;1.63;;;1.53;;
7205;SDS011;3644;53.480;10.004;2023-04-24T04:14:00;3.63;;;2.23;;
7205;SDS011;3644;53.480;10.004;2023-04-24T04:16:26;1.83;;;1.73;;
7205;SDS011;3644;53.480;10.004;2023-04-24T04:18:51;4.27;;;2.50;;
7205;SDS011;3644;53.480;10.004;2023-04-24T04:21:17;4.17;;;3.57;;
7205;SDS011;3644;53.480;10.004;2023-04-24T04:23:42;3.00;;;2.70;;
7205;SDS011;3644;53.480;10.004;2023-04-24T04:26:08;2.97;;;2.30;;
7205;SDS011;3644;53.480;10.004;2023-04-24T04:28:34;2.90;;;2.70;;
7205;SDS011;3644;53.480;10.004;2023-04-24T04:31:01;1.30;;;1.30;;
7205;SDS011;3644;53.480;10.004;2023-04-24T04:33:27;1.27;;;1.23;;
7205;SDS011;3644;53.480;10.004;2023-04-24T04:35:52;1.50;;;1.40;;
7205;SDS011;3644;53.480;10.004;2023-04-24T04:38:18;1.83;;;1.33;;
7205;SDS011;3644;53.480;10.004;2023-04-24T04:40:45;1.60;;;1.50;;
7205;SDS011;3644;53.480;10.004;2023-04-24T04:43:11;1.40;;;1.40;;
7205;SDS011;3644;53.480;10.004;2023-04-24T04:45:38;1.63;;;1.53;;
7205;SDS011;3644;53.480;10.004;2023-04-24T04:48:05;1.77;;;1.67;;
7205;SDS011;3644;53.480;10.004;2023-04-24T04:50:32;6.00;;;1.53;;
7205;SDS011;3644;53.480;10.004;2023-04-24T04:52:58;1.70;;;1.60;;
7205;SDS011;3644;53.480;10.004;2023-04-24T04:55:23;1.70;;;1.60;;
7205;SDS011;3644;53.480;10.004;2023-04-24T04:57:49;2.10;;;1.57;;
7205;SDS011;3644;53.480;10.004;2023-04-24T05:00:15;1.37;;;1.20;;
7205;SDS011;3644;53.480;10.004;2023-04-24T05:02:41;6.23;;;1.80;;
7205;SDS011;3644;53.480;10.004;2023-04-24T05:05:06;1.50;;;1.40;;
7205;SDS011;3644;53.480;10.004;2023-04-24T05:07:32;1.07;;;1.07;;
7205;SDS011;3644;53.480;10.004;2023-04-24T05:09:58;2.93;;;1.20;;
7205;SDS011;3644;53.480;10.004;2023-04-24T05:12:23;1.20;;;1.10;;
7205;SDS011;3644;53.480;10.004;2023-04-24T05:14:49;3.77;;;1.40;;
7205;SDS011;3644;53.480;10.004;2023-04-24T05:17:15;1.17;;;1.17;;
7205;SDS011;3644;53.480;10.004;2023-04-24T05:19:41;1.20;;;1.10;;
7205;SDS011;3644;53.480;10.004;2023-04-24T05:22:06;1.23;;;1.20;;
7205;SDS011;3644;53.480;10.004;2023-04-24T05:24:32;2.67;;;1.10;;
7205;SDS011;3644;53.480;10.004;2023-04-24T05:26:58;1.20;;;1.00;;
7205;SDS011;3644;53.480;10.004;2023-04-24T05:29:24;1.77;;;1.30;;
7205;SDS011;3644;53.480;10.004;2023-04-24T05:31:51;1.63;;;1.33;;
7205;SDS011;3644;53.480;10.004;2023-04-24T05:34:17;0.90;;;0.90;;
7205;SDS011;3644;53.480;10.004;2023-04-24T05:36:43;1.43;;;1.17;;
7205;SDS011;3644;53.480;10.004;2023-04-24T05:39:08;1.00;;;1.00;;
7205;SDS011;3644;53.480;10.004;2023-04-24T05:41:34;1.10;;;1.10;;
7205;SDS011;3644;53.480;10.004;2023-04-24T05:43:59;1.43;;;1.17;;
7205;SDS011;3644;53.480;10.004;2023-04-24T05:46:25;0.90;;;0.90;;
7205;SDS011;3644;53.480;10.004;2023-04-24T05:48:50;1.23;;;1.13;;
7205;SDS011;3644;53.480;10.004;2023-04-24T05:51:16;2.50;;;1.13;;
7205;SDS011;3644;53.480;10.004;2023-04-24T05:53:41;1.07;;;1.07;;
7205;SDS011;3644;53.480;10.004;2023-04-24T05:56:07;1.27;;;1.17;;
7205;SDS011;3644;53.480;10.004;2023-04-24T05:58:33;4.20;;;1.10;;
7205;SDS011;3644;53.480;10.004;2023-04-24T06:00:58;4.20;;;1.17;;
7205;SDS011;3644;53.480;10.004;2023-04-24T06:03:26;5.90;;;1.87;;
7205;SDS011;3644;53.480;10.004;2023-04-24T06:05:52;1.63;;;1.23;;
7205;SDS011;3644;53.480;10.004;2023-04-24T06:08:17;2.30;;;1.20;;
7205;SDS011;3644;53.480;10.004;2023-04-24T06:10:43;1.23;;;1.23;;
7205;SDS011;3644;53.480;10.004;2023-04-24T06:13:09;1.10;;;1.10;;
7205;SDS011;3644;53.480;10.004;2023-04-24T06:15:34;1.40;;;1.30;;
7205;SDS011;3644;53.480;10.004;2023-04-24T06:18:00;0.80;;;0.80;;
7205;SDS011;3644;53.480;10.004;2023-04-24T06:20:26;1.53;;;1.43;;
7205;SDS011;3644;53.480;10.004;2023-04-24T06:22:51;1.60;;;1.33;;
7205;SDS011;3644;53.480;10.004;2023-04-24T06:25:17;1.50;;;1.40;;
7205;SDS011;3644;53.480;10.004;2023-04-24T06:27:43;2.10;;;1.90;;
7205;SDS011;3644;53.480;10.004;2023-04-24T06:30:08;1.40;;;1.23;;
7205;SDS011;3644;53.480;10.004;2023-04-24T06:32:34;1.63;;;1.53;;
7205;SDS011;3644;53.480;10.004;2023-04-24T06:35:00;2.10;;;1.80;;
7205;SDS011;3644;53.480;10.004;2023-04-24T06:37:25;1.93;;;1.83;;
7205;SDS011;3644;53.480;10.004;2023-04-24T06:39:51;1.47;;;1.37;;
7205;SDS011;3644;53.480;10.004;2023-04-24T06:42:16;1.93;;;1.63;;
7205;SDS011;3644;53.480;10.004;2023-04-24T06:44:42;1.93;;;1.70;;
7205;SDS011;3644;53.480;10.004;2023-04-24T06:47:08;2.97;;;1.87;;
7205;SDS011;3644;53.480;10.004;2023-04-24T06:49:38;2.40;;;2.20;;
7205;SDS011;3644;53.480;10.004;2023-04-24T06:52:05;2.77;;;1.70;;
7205;SDS011;3644;53.480;10.004;2023-04-24T06:54:31;1.67;;;1.57;;
7205;SDS011;3644;53.480;10.004;2023-04-24T06:56:57;2.20;;;1.67;;
7205;SDS011;3644;53.480;10.004;2023-04-24T06:59:23;1.60;;;1.50;;
7205;SDS011;3644;53.480;10.004;2023-04-24T07:01:49;2.53;;;2.10;;
7205;SDS011;3644;53.480;10.004;2023-04-24T07:04:16;1.80;;;1.60;;
7205;SDS011;3644;53.480;10.004;2023-04-24T07:06:42;4.43;;;2.27;;
7205;SDS011;3644;53.480;10.004;2023-04-24T07:09:08;2.17;;;1.97;;
7205;SDS011;3644;53.480;10.004;2023-04-24T07:11:34;2.40;;;2.20;;
7205;SDS011;3644;53.480;10.004;2023-04-24T07:14:01;2.30;;;2.20;;
7205;SDS011;3644;53.480;10.004;2023-04-24T07:16:27;2.23;;;2.03;;
7205;SDS011;3644;53.480;10.004;2023-04-24T07:18:53;2.93;;;2.10;;
7205;SDS011;3644;53.480;10.004;2023-04-24T07:21:18;1.70;;;1.60;;
7205;SDS011;3644;53.480;10.004;2023-04-24T07:23:44;2.97;;;2.73;;
7205;SDS011;3644;53.480;10.004;2023-04-24T07:26:09;2.23;;;2.13;;
7205;SDS011;3644;53.480;10.004;2023-04-24T07:28:35;3.07;;;2.30;;
7205;SDS011;3644;53.480;10.004;2023-04-24T07:31:00;2.67;;;2.40;;
7205;SDS011;3644;53.480;10.004;2023-04-24T07:33:26;4.20;;;2.63;;
7205;SDS011;3644;53.480;10.004;2023-04-24T07:35:52;3.83;;;2.30;;
7205;SDS011;3644;53.480;10.004;2023-04-24T07:38:18;3.80;;;2.87;;
7205;SDS011;3644;53.480;10.004;2023-04-24T07:40:47;3.13;;;2.90;;
7205;SDS011;3644;53.480;10.004;2023-04-24T07:43:13;2.30;;;2.07;;
7205;SDS011;3644;53.480;10.004;2023-04-24T07:45:38;3.73;;;3.10;;
7205;SDS011;3644;53.480;10.004;2023-04-24T07:48:04;2.60;;;2.40;;
7205;SDS011;3644;53.480;10.004;2023-04-24T07:50:30;2.83;;;2.57;;
7205;SDS011;3644;53.480;10.004;2023-04-24T07:52:56;4.83;;;2.77;;
7205;SDS011;3644;53.480;10.004;2023-04-24T07:55:22;3.73;;;3.10;;
7205;SDS011;3644;53.480;10.004;2023-04-24T07:57:48;3.37;;;3.07;;
7205;SDS011;3644;53.480;10.004;2023-04-24T08:00:14;3.20;;;2.83;;
7205;SDS011;3644;53.480;10.004;2023-04-24T08:02:40;2.90;;;2.70;;
7205;SDS011;3644;53.480;10.004;2023-04-24T08:05:05;3.50;;;3.17;;
7205;SDS011;3644;53.480;10.004;2023-04-24T08:07:31;3.23;;;2.93;;
7205;SDS011;3644;53.480;10.004;2023-04-24T08:09:57;2.97;;;2.77;;
7205;SDS011;3644;53.480;10.004;2023-04-24T08:12:24;3.30;;;3.03;;
7205;SDS011;3644;53.480;10.004;2023-04-24T08:14:50;3.17;;;2.97;;
7205;SDS011;3644;53.480;10.004;2023-04-24T08:17:16;3.43;;;2.97;;
7205;SDS011;3644;53.480;10.004;2023-04-24T08:19:42;7.20;;;3.93;;
7205;SDS011;3644;53.480;10.004;2023-04-24T08:22:12;4.33;;;3.20;;
7205;SDS011;3644;53.480;10.004;2023-04-24T08:24:38;4.50;;;3.70;;
7205;SDS011;3644;53.480;10.004;2023-04-24T08:27:03;4.87;;;3.27;;
7205;SDS011;3644;53.480;10.004;2023-04-24T08:29:29;3.57;;;3.27;;
7205;SDS011;3644;53.480;10.004;2023-04-24T08:31:54;6.40;;;4.70;;
7205;SDS011;3644;53.480;10.004;2023-04-24T08:34:20;6.03;;;3.73;;
7205;SDS011;3644;53.480;10.004;2023-04-24T08:36:46;9.37;;;4.07;;
7205;SDS011;3644;53.480;10.004;2023-04-24T08:39:12;4.67;;;3.93;;
7205;SDS011;3644;53.480;10.004;2023-04-24T08:41:38;4.33;;;3.93;;
7205;SDS011;3644;53.480;10.004;2023-04-24T08:44:07;6.80;;;3.77;;
7205;SDS011;3644;53.480;10.004;2023-04-24T08:46:33;6.57;;;4.37;;
7205;SDS011;3644;53.480;10.004;2023-04-24T08:49:00;5.00;;;3.83;;
7205;SDS011;3644;53.480;10.004;2023-04-24T08:51:26;6.30;;;3.87;;
7205;SDS011;3644;53.480;10.004;2023-04-24T08:53:55;4.37;;;3.50;;
7205;SDS011;3644;53.480;10.004;2023-04-24T08:56:22;3.73;;;3.30;;
7205;SDS011;3644;53.480;10.004;2023-04-24T08:58:49;3.80;;;3.43;;
7205;SDS011;3644;53.480;10.004;2023-04-24T09:01:16;3.20;;;3.00;;
7205;SDS011;3644;53.480;10.004;2023-04-24T09:03:43;5.20;;;3.90;;
7205;SDS011;3644;53.480;10.004;2023-04-24T09:06:10;4.63;;;3.27;;
7205;SDS011;3644;53.480;10.004;2023-04-24T09:08:36;5.50;;;3.70;;
7205;SDS011;3644;53.480;10.004;2023-04-24T09:11:02;7.60;;;3.50;;
7205;SDS011;3644;53.480;10.004;2023-04-24T09:13:28;3.30;;;3.00;;
7205;SDS011;3644;53.480;10.004;2023-04-24T09:15:55;3.93;;;3.63;;
7205;SDS011;3644;53.480;10.004;2023-04-24T09:18:22;3.70;;;3.40;;
7205;SDS011;3644;53.480;10.004;2023-04-24T09:20:57;6.10;;;3.70;;
7205;SDS011;3644;53.480;10.004;2023-04-24T09:23:28;4.20;;;3.80;;
7205;SDS011;3644;53.480;10.004;2023-04-24T09:25:55;4.40;;;3.50;;
7205;SDS011;3644;53.480;10.004;2023-04-24T09:28:25;4.07;;;3.37;;
7205;SDS011;3644;53.480;10.004;2023-04-24T09:31:14;4.10;;;3.80;;
7205;SDS011;3644;53.480;10.004;2023-04-24T09:33:59;4.40;;;3.87;;
7205;SDS011;3644;53.480;10.004;2023-04-24T09:36:28;4.40;;;3.20;;
7205;SDS011;3644;53.480;10.004;2023-04-24T09:39:00;5.80;;;4.53;;
7205;SDS011;3644;53.480;10.004;2023-04-24T09:41:27;6.53;;;4.60;;
7205;SDS011;3644;53.480;10.004;2023-04-24T09:43:54;6.77;;;5.63;;
7205;SDS011;3644;53.480;10.004;2023-04-24T09:46:20;4.23;;;3.80;;
7205;SDS011;3644;53.480;10.004;2023-04-24T09:48:48;5.80;;;4.30;;
7205;SDS011;3644;53.480;10.004;2023-04-24T09:51:14;4.67;;;3.60;;
7205;SDS011;3644;53.480;10.004;2023-04-24T09:53:44;4.10;;;3.80;;
7205;SDS011;3644;53.480;10.004;2023-04-24T09:56:11;4.47;;;3.93;;
7205;SDS011;3644;53.480;10.004;2023-04-24T09:58:37;3.53;;;3.27;;
7205;SDS011;3644;53.480;10.004;2023-04-24T10:01:04;5.83;;;4.50;;
7205;SDS011;3644;53.480;10.004;2023-04-24T10:03:30;5.03;;;4.57;;
7205;SDS011;3644;53.480;10.004;2023-04-24T10:05:59;4.43;;;4.03;;
7205;SDS011;3644;53.480;10.004;2023-04-24T10:08:34;8.57;;;5.70;;
7205;SDS011;3644;53.480;10.004;2023-04-24T10:11:00;5.33;;;4.77;;
7205;SDS011;3644;53.480;10.004;2023-04-24T10:13:26;6.87;;;5.57;;
7205;SDS011;3644;53.480;10.004;2023-04-24T10:15:53;6.97;;;5.83;;
7205;SDS011;3644;53.480;10.004;2023-04-24T10:18:20;8.17;;;6.50;;
7205;SDS011;3644;53.480;10.004;2023-04-24T10:20:46;10.67;;;6.43;;
7205;SDS011;3644;53.480;10.004;2023-04-24T10:23:12;9.50;;;7.07;;
7205;SDS011;3644;53.480;10.004;2023-04-24T10:25:37;19.43;;;6.40;;
7205;SDS011;3644;53.480;10.004;2023-04-24T10:28:03;8.50;;;6.50;;
7205;SDS011;3644;53.480;10.004;2023-04-24T10:30:31;8.63;;;7.10;;
7205;SDS011;3644;53.480;10.004;2023-04-24T10:33:04;10.03;;;7.17;;
7205;SDS011;3644;53.480;10.004;2023-04-24T10:35:33;13.77;;;7.67;;
7205;SDS011;3644;53.480;10.004;2023-04-24T10:38:02;12.00;;;6.93;;
7205;SDS011;3644;53.480;10.004;2023-04-24T10:40:32;10.37;;;7.40;;
7205;SDS011;3644;53.480;10.004;2023-04-24T10:43:02;10.53;;;6.73;;
7205;SDS011;3644;53.480;10.004;2023-04-24T10:45:31;9.40;;;7.50;;
7205;SDS011;3644;53.480;10.004;2023-04-24T10:47:57;9.80;;;7.23;;
7205;SDS011;3644;53.480;10.004;2023-04-24T10:50:41;9.00;;;6.80;;
7205;SDS011;3644;53.480;10.004;2023-04-24T10:53:07;10.00;;;6.50;;
7205;SDS011;3644;53.480;10.004;2023-04-24T10:55:47;14.20;;;7.57;;
7205;SDS011;3644;53.480;10.004;2023-04-24T10:58:14;7.40;;;5.70;;
7205;SDS011;3644;53.480;10.004;2023-04-24T11:00:42;8.60;;;7.00;;
7205;SDS011;3644;53.480;10.004;2023-04-24T11:03:22;9.43;;;6.83;;
7205;SDS011;3644;53.480;10.004;2023-04-24T11:05:55;10.83;;;6.70;;
7205;SDS011;3644;53.480;10.004;2023-04-24T11:08:27;6.63;;;5.90;;
7205;SDS011;3644;53.480;10.004;2023-04-24T11:10:55;9.37;;;6.87;;
7205;SDS011;3644;53.480;10.004;2023-04-24T11:13:26;19.07;;;7.30;;
7205;SDS011;3644;53.480;10.004;2023-04-24T11:24:30;8.70;;;7.03;;
7205;SDS011;3644;53.480;10.004;2023-04-24T11:27:06;6.97;;;5.83;;
7205;SDS011;3644;53.480;10.004;2023-04-24T11:35:01;9.20;;;6.70;;
7205;SDS011;3644;53.480;10.004;2023-04-24T11:37:41;7.93;;;5.50;;
7205;SDS011;3644;53.480;10.004;2023-04-24T11:40:09;7.13;;;5.57;;
7205;SDS011;3644;53.480;10.004;2023-04-24T11:42:37;6.00;;;5.40;;
7205;SDS011;3644;53.480;10.004;2023-04-24T11:45:08;8.60;;;6.10;;
7205;SDS011;3644;53.480;10.004;2023-04-24T11:47:35;5.63;;;5.03;;
7205;SDS011;3644;53.480;10.004;2023-04-24T11:50:01;6.70;;;6.00;;
7205;SDS011;3644;53.480;10.004;2023-04-24T11:52:28;7.83;;;5.10;;
7205;SDS011;3644;53.480;10.004;2023-04-24T11:54:55;6.70;;;4.67;;
7205;SDS011;3644;53.480;10.004;2023-04-24T11:57:21;7.13;;;4.10;;
7205;SDS011;3644;53.480;10.004;2023-04-24T11:59:51;6.47;;;4.70;;
7205;SDS011;3644;53.480;10.004;2023-04-24T12:02:20;5.23;;;4.27;;
7205;SDS011;3644;53.480;10.004;2023-04-24T12:04:46;7.33;;;3.90;;
7205;SDS011;3644;53.480;10.004;2023-04-24T12:07:12;6.90;;;4.17;;
7205;SDS011;3644;53.480;10.004;2023-04-24T12:12:11;3.93;;;3.50;;
7205;SDS011;3644;53.480;10.004;2023-04-24T12:17:13;6.90;;;4.47;;
7205;SDS011;3644;53.480;10.004;2023-04-24T12:19:44;6.63;;;4.10;;
7205;SDS011;3644;53.480;10.004;2023-04-24T12:22:11;4.97;;;4.43;;
7205;SDS011;3644;53.480;10.004;2023-04-24T12:24:54;9.53;;;5.67;;
7205;SDS011;3644;53.480;10.004;2023-04-24T12:27:21;4.80;;;4.30;;
7205;SDS011;3644;53.480;10.004;2023-04-24T12:29:56;5.30;;;4.50;;
7205;SDS011;3644;53.480;10.004;2023-04-24T12:32:23;5.60;;;5.10;;
7205;SDS011;3644;53.480;10.004;2023-04-24T12:34:52;7.13;;;5.87;;
7205;SDS011;3644;53.480;10.004;2023-04-24T12:37:19;8.10;;;5.17;;
7205;SDS011;3644;53.480;10.004;2023-04-24T12:39:57;6.70;;;4.50;;
7205;SDS011;3644;53.480;10.004;2023-04-24T12:42:25;4.70;;;3.97;;
7205;SDS011;3644;53.480;10.004;2023-04-24T12:44:55;4.83;;;3.77;;
7205;SDS011;3644;53.480;10.004;2023-04-24T12:47:23;5.70;;;3.93;;
7205;SDS011;3644;53.480;10.004;2023-04-24T12:49:49;5.07;;;3.60;;
7205;SDS011;3644;53.480;10.004;2023-04-24T12:52:17;3.40;;;2.87;;
7205;SDS011;3644;53.480;10.004;2023-04-24T12:54:45;7.20;;;3.40;;
7205;SDS011;3644;53.480;10.004;2023-04-24T12:57:10;5.00;;;3.63;;
7205;SDS011;3644;53.480;10.004;2023-04-24T12:59:36;3.63;;;3.30;;
7205;SDS011;3644;53.480;10.004;2023-04-24T13:02:01;3.40;;;3.10;;
7205;SDS011;3644;53.480;10.004;2023-04-24T13:04:27;5.57;;;3.17;;
7205;SDS011;3644;53.480;10.004;2023-04-24T13:06:53;3.40;;;2.80;;
7205;SDS011;3644;53.480;10.004;2023-04-24T13:09:18;5.60;;;2.83;;
7205;SDS011;3644;53.480;10.004;2023-04-24T13:11:44;3.57;;;3.27;;
7205;SDS011;3644;53.480;10.004;2023-04-24T13:14:09;3.90;;;3.60;;
7205;SDS011;3644;53.480;10.004;2023-04-24T13:16:35;3.23;;;2.90;;
7205;SDS011;3644;53.480;10.004;2023-04-24T13:19:00;4.23;;;3.70;;
7205;SDS011;3644;53.480;10.004;2023-04-24T13:21:26;3.57;;;3.17;;
7205;SDS011;3644;53.480;10.004;2023-04-24T13:23:52;5.30;;;3.33;;
7205;SDS011;3644;53.480;10.004;2023-04-24T13:26:18;4.53;;;3.30;;
7205;SDS011;3644;53.480;10.004;2023-04-24T13:28:43;3.50;;;3.20;;
7205;SDS011;3644;53.480;10.004;2023-04-24T13:31:09;2.73;;;2.53;;
7205;SDS011;3644;53.480;10.004;2023-04-24T13:33:34;3.20;;;2.90;;
7205;SDS011;3644;53.480;10.004;2023-04-24T13:36:00;3.60;;;3.30;;
7205;SDS011;3644;53.480;10.004;2023-04-24T13:38:26;3.77;;;3.47;;
7205;SDS011;3644;53.480;10.004;2023-04-24T13:40:51;3.10;;;2.70;;
7205;SDS011;3644;53.480;10.004;2023-04-24T13:43:17;3.53;;;3.23;;
7205;SDS011;3644;53.480;10.004;2023-04-24T13:45:42;3.63;;;3.43;;
7205;SDS011;3644;53.480;10.004;2023-04-24T13:48:08;4.93;;;3.37;;
7205;SDS011;3644;53.480;10.004;2023-04-24T13:50:34;3.43;;;3.10;;
7205;SDS011;3644;53.480;10.004;2023-04-24T13:52:59;4.47;;;3.57;;
7205;SDS011;3644;53.480;10.004;2023-04-24T13:55:26;3.80;;;3.23;;
7205;SDS011;3644;53.480;10.004;2023-04-24T13:57:51;6.10;;;3.30;;
7205;SDS011;3644;53.480;10.004;2023-04-24T14:00:20;3.80;;;3.13;;
7205;SDS011;3644;53.480;10.004;2023-04-24T14:02:45;3.47;;;3.20;;
7205;SDS011;3644;53.480;10.004;2023-04-24T14:05:12;5.40;;;3.50;;
7205;SDS011;3644;53.480;10.004;2023-04-24T14:07:40;5.53;;;4.30;;
7205;SDS011;3644;53.480;10.004;2023-04-24T14:10:06;3.87;;;2.90;;
7205;SDS011;3644;53.480;10.004;2023-04-24T14:12:32;5.00;;;3.87;;
7205;SDS011;3644;53.480;10.004;2023-04-24T14:14:58;4.13;;;3.73;;
7205;SDS011;3644;53.480;10.004;2023-04-24T14:17:24;13.83;;;4.47;;
7205;SDS011;3644;53.480;10.004;2023-04-24T14:19:49;5.80;;;3.70;;
7205;SDS011;3644;53.480;10.004;2023-04-24T14:22:17;3.20;;;3.00;;
7205;SDS011;3644;53.480;10.004;2023-04-24T14:24:42;3.60;;;3.20;;
7205;SDS011;3644;53.480;10.004;2023-04-24T14:27:08;5.27;;;3.20;;
7205;SDS011;3644;53.480;10.004;2023-04-24T14:29:33;2.80;;;2.47;;
7205;SDS011;3644;53.480;10.004;2023-04-24T14:31:59;2.53;;;2.33;;
7205;SDS011;3644;53.480;10.004;2023-04-24T14:34:24;2.17;;;2.07;;
7205;SDS011;3644;53.480;10.004;2023-04-24T14:36:50;2.60;;;2.37;;
7205;SDS011;3644;53.480;10.004;2023-04-24T14:39:15;6.80;;;3.23;;
7205;SDS011;3644;53.480;10.004;2023-04-24T14:41:41;2.90;;;2.57;;
7205;SDS011;3644;53.480;10.004;2023-04-24T14:44:06;3.30;;;3.00;;
7205;SDS011;3644;53.480;10.004;2023-04-24T14:46:32;3.77;;;3.43;;
7205;SDS011;3644;53.480;10.004;2023-04-24T14:48:57;8.53;;;5.93;;
7205;SDS011;3644;53.480;10.004;2023-04-24T14:51:23;4.93;;;3.80;;
7205;SDS011;3644;53.480;10.004;2023-04-24T14:53:49;3.60;;;3.33;;
7205;SDS011;3644;53.480;10.004;2023-04-24T14:56:14;3.80;;;3.50;;
7205;SDS011;3644;53.480;10.004;2023-04-24T14:58:40;4.83;;;4.33;;
7205;SDS011;3644;53.480;10.004;2023-04-24T15:01:05;4.30;;;3.90;;
7205;SDS011;3644;53.480;10.004;2023-04-24T15:03:31;6.63;;;4.30;;
7205;SDS011;3644;53.480;10.004;2023-04-24T15:05:57;5.17;;;4.67;;
7205;SDS011;3644;53.480;10.004;2023-04-24T15:08:22;4.73;;;4.10;;
7205;SDS011;3644;53.480;10.004;2023-04-24T15:10:48;6.60;;;4.00;;
7205;SDS011;3644;53.480;10.004;2023-04-24T15:13:14;4.03;;;3.70;;
7205;SDS011;3644;53.480;10.004;2023-04-24T15:15:40;6.17;;;5.00;;